Time;durP1;ratioP1;P1;durP2;ratioP2;P2;SDS_P1;SDS_P2;PMS_P1;PMS_P2;Temp;Humidity;BMP_temperature;BMP_pressure;BME280_temperature;BME280_humidity;BME280_pressure;Samples;Min_cycle;Max_cycle;Signal;HPM_P1;HPM_P2
2022/03/09 00:00:33;;;;;;;19.38;9.02;;;;;;;4.50;43.34;100622.44;5009691;28;20106;-80
2022/03/09 00:03:00;;;;;;;15.85;7.93;;;;;;;4.48;43.55;100624.28;5003698;28;20060;-80
2022/03/09 00:05:27;;;;;;;18.85;8.73;;;;;;;4.44;43.94;100617.47;5025645;28;20500;-82
2022/03/09 00:07:53;;;;;;;19.60;8.43;;;;;;;4.41;44.22;100625.50;5012886;28;20075;-80
2022/03/09 00:10:22;;;;;;;22.13;9.77;;;;;;;4.38;44.34;100620.41;4994267;28;20055;-80
2022/03/09 00:12:49;;;;;;;13.43;8.63;;;;;;;4.35;44.65;100631.94;5024709;28;20075;-81
2022/03/09 00:15:15;;;;;;;18.20;8.50;;;;;;;4.34;44.83;100627.59;5011559;28;20659;-80
2022/03/09 00:17:42;;;;;;;15.80;7.45;;;;;;;4.34;44.32;100630.22;5005596;28;20167;-80
2022/03/09 00:20:09;;;;;;;15.40;7.70;;;;;;;4.32;44.41;100631.22;5006901;28;20643;-81
2022/03/09 00:22:36;;;;;;;15.88;7.05;;;;;;;4.31;44.57;100632.16;5034619;28;20432;-81
2022/03/09 00:25:03;;;;;;;18.95;7.25;;;;;;;4.31;44.44;100640.06;5020902;28;20040;-81
2022/03/09 00:27:31;;;;;;;15.68;7.70;;;;;;;4.29;44.39;100641.91;4986938;28;20059;-81
2022/03/09 00:29:57;;;;;;;15.60;7.85;;;;;;;4.29;44.63;100648.00;5003935;28;20037;-80
2022/03/09 00:32:24;;;;;;;14.48;7.18;;;;;;;4.29;44.27;100648.00;5011942;28;20044;-80
2022/03/09 00:34:51;;;;;;;17.73;7.55;;;;;;;4.28;44.05;100640.22;4985627;28;20041;-81
2022/03/09 00:37:19;;;;;;;17.00;8.05;;;;;;;4.25;44.17;100650.84;5004199;28;20048;-80
2022/03/09 00:39:45;;;;;;;12.68;7.10;;;;;;;4.21;44.55;100647.53;5022317;28;20114;-81
2022/03/09 00:42:12;;;;;;;14.77;6.72;;;;;;;4.22;44.27;100651.84;5002682;28;20485;-81
2022/03/09 00:44:39;;;;;;;15.18;7.63;;;;;;;4.21;44.46;100650.16;5004740;28;20052;-80
2022/03/09 00:47:06;;;;;;;13.48;7.47;;;;;;;4.21;44.32;100657.19;5027790;28;20541;-81
2022/03/09 00:49:36;;;;;;;15.00;8.32;;;;;;;4.18;44.30;100658.22;5011680;28;20045;-80
2022/03/09 00:52:03;;;;;;;15.48;7.28;;;;;;;4.17;44.38;100653.00;5005901;28;23562;-81
2022/03/09 00:54:30;;;;;;;14.98;7.50;;;;;;;4.16;44.45;100653.94;5015632;28;20056;-80
2022/03/09 00:56:56;;;;;;;19.65;7.80;;;;;;;4.15;44.84;100653.09;5007133;28;20467;-81
2022/03/09 00:59:23;;;;;;;16.40;7.90;;;;;;;4.14;44.91;100654.84;5035339;28;20045;-81
2022/03/09 01:01:50;;;;;;;19.17;9.27;;;;;;;4.12;44.91;100643.59;5009626;28;20045;-81
2022/03/09 01:04:17;;;;;;;15.40;7.90;;;;;;;4.11;44.76;100647.13;5020071;28;20051;-81
2022/03/09 01:06:44;;;;;;;18.52;9.52;;;;;;;4.10;44.94;100649.84;5035757;28;20040;-81
2022/03/09 01:09:11;;;;;;;17.38;9.00;;;;;;;4.08;44.73;100654.31;5027630;28;20045;-81
2022/03/09 01:11:37;;;;;;;16.58;8.23;;;;;;;4.06;44.74;100635.97;5022973;28;20045;-81
2022/03/09 01:14:04;;;;;;;19.30;8.68;;;;;;;4.06;44.90;100640.41;5010538;28;20056;-80
2022/03/09 01:16:32;;;;;;;16.30;7.97;;;;;;;4.04;44.73;100644.88;5006566;28;20127;-81
2022/03/09 01:18:58;;;;;;;17.40;8.35;;;;;;;4.03;44.75;100637.91;5031957;28;20051;-81
2022/03/09 01:21:26;;;;;;;17.95;8.52;;;;;;;4.00;44.88;100644.19;5002573;28;20041;-80
2022/03/09 01:23:52;;;;;;;15.43;7.47;;;;;;;4.00;45.01;100638.91;5022446;28;20048;-80
2022/03/09 01:26:19;;;;;;;18.13;9.00;;;;;;;3.98;45.06;100638.13;5019941;28;20048;-81
2022/03/09 01:28:46;;;;;;;19.15;8.38;;;;;;;3.96;45.23;100639.13;5005514;28;20060;-80
2022/03/09 01:31:13;;;;;;;17.67;8.23;;;;;;;3.96;45.05;100639.97;5024046;28;20037;-81
2022/03/09 01:33:39;;;;;;;17.15;7.70;;;;;;;3.94;45.56;100635.72;5012255;28;20044;-81
2022/03/09 01:36:07;;;;;;;16.15;7.80;;;;;;;3.91;45.17;100637.56;5033366;28;20045;-80
2022/03/09 01:38:34;;;;;;;15.95;7.35;;;;;;;3.92;45.54;100638.44;5021208;28;20044;-81
2022/03/09 01:41:02;;;;;;;12.15;7.50;;;;;;;3.89;45.33;100634.19;5031334;28;20052;-81
2022/03/09 01:43:29;;;;;;;14.43;7.43;;;;;;;3.88;45.24;100631.63;5001681;28;20044;-81
2022/03/09 01:45:56;;;;;;;14.48;6.47;;;;;;;3.87;45.39;100636.03;5004084;28;20041;-81
2022/03/09 01:48:23;;;;;;;16.58;7.40;;;;;;;3.86;45.57;100626.44;4988321;28;20115;-80
2022/03/09 01:50:52;;;;;;;15.50;7.57;;;;;;;3.85;45.36;100627.38;5032092;28;20048;-81
2022/03/09 01:53:19;;;;;;;13.82;6.95;;;;;;;3.83;45.39;100617.84;5022256;28;20048;-80
2022/03/09 01:55:46;;;;;;;11.02;6.22;;;;;;;3.82;45.50;100621.41;5018976;28;20551;-81
2022/03/09 01:58:13;;;;;;;11.63;6.55;;;;;;;3.80;45.34;100629.38;5018105;28;20040;-81
2022/03/09 02:00:40;;;;;;;12.93;6.32;;;;;;;3.80;45.55;100618.84;5010690;28;20068;-81
2022/03/09 02:03:06;;;;;;;12.02;6.00;;;;;;;3.78;45.09;100611.97;5019606;28;20044;-81
2022/03/09 02:05:34;;;;;;;13.63;6.63;;;;;;;3.76;45.37;100609.41;5018393;28;20048;-80
2022/03/09 02:10:48;;;;;;;13.23;6.93;;;;;;;3.70;45.48;100607.94;5005921;28;20047;-80
2022/03/09 02:13:15;;;;;;;16.42;8.05;;;;;;;3.69;45.32;100610.66;5003279;28;20051;-81
2022/03/09 02:15:43;;;;;;;12.85;6.32;;;;;;;3.67;45.66;100609.88;5035972;28;20049;-80
2022/03/09 02:18:14;;;;;;;12.73;6.68;;;;;;;3.62;45.62;100610.06;5007058;28;20056;-80
2022/03/09 02:20:43;;;;;;;16.27;7.60;;;;;;;3.63;45.81;100605.66;5020742;28;20590;-80
2022/03/09 02:23:13;;;;;;;14.77;7.60;;;;;;;3.61;45.88;100605.75;5009973;28;20041;-80
2022/03/09 02:25:39;;;;;;;15.27;7.63;;;;;;;3.60;45.84;100598.78;4999751;28;20497;-80
2022/03/09 02:28:06;;;;;;;12.15;7.57;;;;;;;3.59;46.04;100599.72;5025044;28;20218;-81
2022/03/09 02:30:33;;;;;;;16.05;6.88;;;;;;;3.57;45.84;100596.31;5031266;28;20045;-80
2022/03/09 02:33:00;;;;;;;12.10;6.25;;;;;;;3.55;45.95;100597.31;5032093;28;20534;-81
2022/03/09 02:35:27;;;;;;;15.73;7.30;;;;;;;3.53;46.05;100600.00;4988948;28;20110;-81
2022/03/09 02:37:54;;;;;;;14.65;6.97;;;;;;;3.53;45.81;100601.78;5050823;28;20045;-81
2022/03/09 02:40:20;;;;;;;9.70;5.97;;;;;;;3.51;45.92;100593.13;4999275;28;20519;-81
2022/03/09 02:42:47;;;;;;;14.50;7.20;;;;;;;3.49;46.11;100595.81;5033493;28;20070;-81
2022/03/09 02:45:14;;;;;;;12.13;6.63;;;;;;;3.46;45.93;100607.31;5004245;28;20044;-80
2022/03/09 02:47:42;;;;;;;13.95;6.90;;;;;;;3.44;46.35;100605.69;5035956;28;20099;-81
2022/03/09 02:50:12;;;;;;;12.80;6.03;;;;;;;3.42;46.19;100612.78;5007540;28;20040;-81
2022/03/09 02:52:40;;;;;;;11.77;6.45;;;;;;;3.39;46.11;100610.31;5014625;28;20056;-81
2022/03/09 02:55:08;;;;;;;15.50;6.90;;;;;;;3.37;46.27;100609.53;5022664;28;20044;-80
2022/03/09 02:57:35;;;;;;;10.80;6.35;;;;;;;3.33;45.88;100613.19;4999942;28;20048;-81
2022/03/09 03:00:04;;;;;;;12.40;6.78;;;;;;;3.29;46.31;100625.63;4998887;28;20036;-81
2022/03/09 03:02:30;;;;;;;11.93;6.10;;;;;;;3.26;46.29;100620.53;5002911;28;20045;-81
2022/03/09 03:04:58;;;;;;;14.13;6.63;;;;;;;3.23;46.62;100626.75;5033369;28;20045;-80
2022/03/09 03:07:25;;;;;;;13.63;6.50;;;;;;;3.20;46.83;100620.78;5034465;28;20048;-80
2022/03/09 03:09:52;;;;;;;15.23;6.70;;;;;;;3.18;46.88;100623.50;5036136;28;20075;-81
2022/03/09 03:12:19;;;;;;;16.17;7.40;;;;;;;3.15;46.99;100628.84;5032536;28;20048;-80
2022/03/09 03:14:45;;;;;;;14.65;7.25;;;;;;;3.15;47.19;100628.00;5024290;28;20044;-80
2022/03/09 03:17:12;;;;;;;14.55;7.22;;;;;;;3.11;47.19;100624.69;5033804;28;20056;-81
2022/03/09 03:19:39;;;;;;;13.80;7.07;;;;;;;3.12;47.07;100633.41;5019303;28;20055;-80
2022/03/09 03:22:06;;;;;;;12.60;6.60;;;;;;;3.10;47.10;100638.69;5022646;28;20106;-79
2022/03/09 03:24:32;;;;;;;11.27;6.18;;;;;;;3.11;47.19;100634.34;5019885;28;20518;-81
2022/03/09 03:26:59;;;;;;;14.70;6.80;;;;;;;3.08;47.12;100635.31;4990528;28;20051;-80
2022/03/09 03:29:26;;;;;;;14.38;7.13;;;;;;;3.09;47.48;100630.91;5017348;28;20069;-81
2022/03/09 03:31:53;;;;;;;11.93;6.47;;;;;;;3.07;47.60;100628.34;5006062;28;20052;-80
2022/03/09 03:34:20;;;;;;;12.70;6.95;;;;;;;3.08;47.54;100634.44;5022698;28;20120;-80
2022/03/09 03:36:47;;;;;;;11.65;6.63;;;;;;;3.05;47.37;100627.56;5008736;28;20045;-81
2022/03/09 03:39:14;;;;;;;15.35;6.93;;;;;;;3.06;47.59;100625.81;4991151;28;20037;-80
2022/03/09 03:41:41;;;;;;;14.30;6.90;;;;;;;3.04;47.62;100628.50;5010501;28;20040;-81
2022/03/09 03:44:07;;;;;;;10.73;6.70;;;;;;;3.02;47.49;100628.56;5017568;28;20055;-81
2022/03/09 03:46:34;;;;;;;11.73;5.90;;;;;;;3.02;47.28;100625.09;5034997;28;20159;-80
2022/03/09 03:49:01;;;;;;;12.10;6.75;;;;;;;3.02;47.37;100627.72;5005842;28;20052;-80
2022/03/09 03:51:28;;;;;;;12.35;6.70;;;;;;;3.02;47.23;100625.09;5012802;28;20036;-80
2022/03/09 03:53:56;;;;;;;13.18;6.70;;;;;;;3.00;47.54;100625.16;5013331;28;20058;-80
2022/03/09 03:56:22;;;;;;;10.57;5.90;;;;;;;2.96;47.37;100625.38;5011456;28;20044;-80
2022/03/09 03:58:49;;;;;;;13.55;6.80;;;;;;;2.94;47.24;100617.56;4993998;28;20068;-80
2022/03/09 04:01:16;;;;;;;13.48;7.07;;;;;;;2.90;47.48;100616.00;5006930;28;20053;-80
2022/03/09 04:03:43;;;;;;;12.20;6.80;;;;;;;2.89;47.49;100616.06;5018146;28;20055;-81
2022/03/09 04:06:10;;;;;;;15.65;6.93;;;;;;;2.86;47.75;100624.06;5011908;28;20610;-81
2022/03/09 04:08:37;;;;;;;14.75;7.22;;;;;;;2.85;47.72;100622.34;5022161;28;20043;-80
2022/03/09 04:11:04;;;;;;;20.73;7.00;;;;;;;2.84;48.03;100629.38;5019995;28;20088;-80
2022/03/09 04:13:31;;;;;;;15.50;7.15;;;;;;;2.85;47.58;100622.34;5015391;28;20052;-81
2022/03/09 04:15:58;;;;;;;20.65;7.22;;;;;;;2.82;47.91;100603.22;5002104;28;20045;-80
2022/03/09 04:18:26;;;;;;;12.75;6.78;;;;;;;2.83;47.55;100617.19;5017847;28;20049;-80
2022/03/09 04:20:53;;;;;;;17.38;6.40;;;;;;;2.81;47.58;100613.78;5022965;28;20404;-80
2022/03/09 04:23:20;;;;;;;12.82;6.35;;;;;;;2.79;47.71;100607.75;5005649;28;20049;-81
2022/03/09 04:25:50;;;;;;;13.35;7.18;;;;;;;2.77;48.23;100612.19;5035429;28;20423;-80
2022/03/09 04:28:17;;;;;;;13.15;6.93;;;;;;;2.78;47.74;100613.91;5017309;28;20132;-80
2022/03/09 04:30:44;;;;;;;15.35;6.93;;;;;;;2.75;47.90;100620.16;5001818;28;20054;-81
2022/03/09 04:33:11;;;;;;;16.35;7.28;;;;;;;2.74;48.01;100621.03;5018427;28;20447;-80
2022/03/09 04:35:38;;;;;;;13.95;6.38;;;;;;;2.73;47.72;100627.22;5009706;28;20473;-81
2022/03/09 04:38:06;;;;;;;13.57;7.57;;;;;;;2.70;47.85;100627.34;5010785;28;20045;-81
2022/03/09 04:40:33;;;;;;;19.27;9.75;;;;;;;2.68;47.75;100629.19;5020869;28;20133;-81
2022/03/09 04:43:00;;;;;;;14.70;8.45;;;;;;;2.65;47.93;100631.94;5004551;28;20979;-80
2022/03/09 04:45:27;;;;;;;14.55;7.50;;;;;;;2.63;47.50;100636.41;5042282;28;20041;-81
2022/03/09 04:47:54;;;;;;;17.13;8.77;;;;;;;2.59;47.83;100638.28;5012425;28;20052;-81
2022/03/09 04:50:20;;;;;;;14.18;6.30;;;;;;;2.57;47.69;100645.38;5023041;28;20045;-81
2022/03/09 04:52:47;;;;;;;19.92;6.88;;;;;;;2.54;47.70;100645.50;5016791;28;20141;-81
2022/03/09 04:55:14;;;;;;;19.48;7.57;;;;;;;2.53;48.17;100643.81;5047390;28;20044;-80
2022/03/09 04:57:41;;;;;;;16.17;8.70;;;;;;;2.52;48.39;100634.25;5033802;28;20048;-80
2022/03/09 05:00:09;;;;;;;16.15;8.10;;;;;;;2.51;48.19;100632.53;5014232;28;20048;-81
2022/03/09 05:02:36;;;;;;;12.40;6.63;;;;;;;2.51;48.49;100639.53;5014433;28;20048;-82
2022/03/09 05:05:03;;;;;;;12.55;6.95;;;;;;;2.51;48.21;100636.91;5036600;28;21054;-80
2022/03/09 05:07:31;;;;;;;12.35;6.38;;;;;;;2.49;48.53;100641.38;5004744;28;20045;-80
2022/03/09 05:09:59;;;;;;;17.23;7.15;;;;;;;2.48;48.41;100637.06;5018986;28;20051;-80
2022/03/09 05:12:25;;;;;;;15.25;6.85;;;;;;;2.45;48.42;100648.53;5007231;28;20048;-79
2022/03/09 05:14:52;;;;;;;14.55;7.13;;;;;;;2.40;48.11;100637.38;5007892;28;20049;-79
2022/03/09 05:17:20;;;;;;;17.67;7.25;;;;;;;2.39;48.12;100646.13;5019570;28;20146;-79
2022/03/09 05:19:47;;;;;;;12.90;6.90;;;;;;;2.36;48.40;100654.13;5036655;28;20052;-79
2022/03/09 05:22:13;;;;;;;13.13;7.00;;;;;;;2.33;48.27;100655.13;5049365;28;20047;-77
2022/03/09 05:24:50;;;;;;;12.98;6.20;;;;;;;2.32;48.37;100652.56;5000062;28;20037;-77
2022/03/09 05:27:17;;;;;;;14.75;7.05;;;;;;;2.31;48.32;100659.56;5017345;28;20088;-76
2022/03/09 05:29:44;;;;;;;14.13;7.15;;;;;;;2.29;48.49;100665.78;5012466;28;20099;-77
2022/03/09 05:32:10;;;;;;;11.68;6.57;;;;;;;2.26;48.25;100661.50;5035519;28;20041;-77
2022/03/09 05:34:38;;;;;;;15.35;7.35;;;;;;;2.24;48.42;100660.75;5033738;28;20042;-77
2022/03/09 05:37:05;;;;;;;13.50;6.95;;;;;;;2.21;48.37;100653.00;5017181;28;20045;-76
2022/03/09 05:39:31;;;;;;;15.45;8.00;;;;;;;2.19;48.34;100660.09;5037129;28;20044;-77
2022/03/09 05:41:58;;;;;;;16.77;7.70;;;;;;;2.16;48.31;100657.56;5019115;28;20473;-76
2022/03/09 05:44:25;;;;;;;15.32;8.68;;;;;;;2.13;48.58;100662.94;5019712;28;20055;-77
2022/03/09 05:46:52;;;;;;;20.58;9.45;;;;;;;2.10;48.26;100666.53;5019382;28;20704;-76
2022/03/09 05:49:20;;;;;;;15.00;8.13;;;;;;;2.07;48.72;100673.66;5022210;28;20044;-77
2022/03/09 05:51:46;;;;;;;14.68;7.45;;;;;;;2.05;48.89;100678.97;5017230;28;20052;-77
2022/03/09 05:54:14;;;;;;;15.57;8.40;;;;;;;2.04;49.18;100674.66;5049999;28;20041;-77
2022/03/09 05:56:41;;;;;;;16.45;7.35;;;;;;;2.04;49.27;100684.28;5020057;28;20033;-76
2022/03/09 05:59:08;;;;;;;17.40;8.30;;;;;;;2.02;49.22;100689.56;4998634;28;20064;-76
2022/03/09 06:01:35;;;;;;;18.77;8.68;;;;;;;2.00;49.45;100698.41;5020972;28;20524;-77
2022/03/09 06:04:02;;;;;;;13.48;7.75;;;;;;;1.99;49.45;100709.81;5007323;28;20045;-77
2022/03/09 06:06:29;;;;;;;14.95;7.72;;;;;;;1.98;49.49;100713.31;5049731;28;20044;-77
2022/03/09 06:08:56;;;;;;;17.23;8.35;;;;;;;1.97;49.63;100709.84;5052082;28;20062;-77
2022/03/09 06:11:23;;;;;;;16.80;7.65;;;;;;;1.95;49.31;100717.75;5024484;28;20047;-77
2022/03/09 06:13:50;;;;;;;16.83;8.60;;;;;;;1.95;49.37;100717.75;5031018;28;20067;-77
2022/03/09 06:16:17;;;;;;;15.00;7.50;;;;;;;1.93;49.47;100716.09;5034787;28;20048;-77
2022/03/09 06:18:46;;;;;;;15.00;7.50;;;;;;;1.94;49.62;100715.22;5016455;28;20151;-77
2022/03/09 06:21:13;;;;;;;16.15;8.35;;;;;;;1.93;49.52;100716.09;5017358;28;20041;-77
2022/03/09 06:23:40;;;;;;;20.13;8.15;;;;;;;1.95;49.83;100714.28;5011942;28;20495;-77
2022/03/09 06:26:08;;;;;;;18.13;8.75;;;;;;;1.95;49.71;100714.28;5015724;28;20086;-77
2022/03/09 06:28:35;;;;;;;21.83;10.32;;;;;;;1.93;49.94;100723.97;5040502;28;20063;-77
2022/03/09 06:31:02;;;;;;;27.67;10.95;;;;;;;1.94;49.77;100723.06;4996366;28;20439;-77
2022/03/09 06:33:29;;;;;;;15.93;8.35;;;;;;;1.92;50.13;100722.28;5035690;28;20157;-77
2022/03/09 06:35:55;;;;;;;16.65;8.30;;;;;;;1.92;50.40;100728.34;5019857;28;20071;-77
2022/03/09 06:38:22;;;;;;;23.13;8.07;;;;;;;1.92;50.42;100719.66;5022271;28;20164;-76
2022/03/09 06:40:49;;;;;;;21.80;7.95;;;;;;;1.92;50.36;100720.50;5005254;28;20063;-77
2022/03/09 06:43:15;;;;;;;18.00;8.52;;;;;;;1.92;50.54;100725.72;5011841;28;20076;-77
2022/03/09 06:45:42;;;;;;;18.17;9.38;;;;;;;1.93;50.57;100718.72;5051117;28;20593;-77
2022/03/09 06:48:09;;;;;;;23.00;9.32;;;;;;;1.94;50.61;100721.28;5018241;28;20080;-77
2022/03/09 06:50:36;;;;;;;16.00;8.25;;;;;;;1.93;50.60;100719.59;5007176;28;20488;-77
2022/03/09 06:53:04;;;;;;;18.42;8.70;;;;;;;1.95;50.69;100715.13;5022952;28;20045;-76
2022/03/09 06:55:31;;;;;;;17.08;8.20;;;;;;;1.97;50.63;100733.41;5030688;28;20534;-77
2022/03/09 06:57:57;;;;;;;16.80;7.80;;;;;;;1.99;50.76;100736.00;5035613;28;20049;-77
2022/03/09 07:00:24;;;;;;;17.40;8.18;;;;;;;1.99;51.03;100726.38;5048645;28;20575;-77
2022/03/09 07:02:51;;;;;;;16.17;7.85;;;;;;;2.02;50.81;100741.09;5052374;28;20055;-77
2022/03/09 07:05:18;;;;;;;13.43;7.45;;;;;;;2.02;50.84;100736.72;5037092;28;20051;-76
2022/03/09 07:07:44;;;;;;;14.20;8.05;;;;;;;2.02;51.24;100739.34;5050624;28;20036;-77
2022/03/09 07:10:13;;;;;;;22.15;8.77;;;;;;;1.94;51.50;100744.88;5009502;28;20114;-77
2022/03/09 07:12:43;;;;;;;17.98;7.60;;;;;;;1.95;51.59;100748.34;4986564;28;20051;-76
2022/03/09 07:15:10;;;;;;;18.52;8.55;;;;;;;1.97;51.46;100743.91;5032485;28;20118;-77
2022/03/09 07:17:38;;;;;;;16.75;8.43;;;;;;;1.99;51.56;100739.47;5024570;28;20044;-77
2022/03/09 07:20:07;;;;;;;14.48;7.45;;;;;;;2.02;51.82;100746.34;5023208;28;20504;-77
2022/03/09 07:22:42;;;;;;;15.50;7.40;;;;;;;2.02;51.67;100749.81;5010803;28;20049;-77
2022/03/09 07:25:10;;;;;;;16.40;6.80;;;;;;;2.06;51.84;100743.56;5054342;28;20399;-77
2022/03/09 07:27:38;;;;;;;15.75;7.88;;;;;;;2.09;52.11;100750.44;5020350;28;20045;-77
2022/03/09 07:30:06;;;;;;;18.23;8.82;;;;;;;2.12;52.23;100766.03;5006878;28;20084;-78
2022/03/09 07:32:33;;;;;;;14.70;7.43;;;;;;;2.15;52.13;100760.69;5012647;28;20128;-77
2022/03/09 07:35:21;;;;;;;16.00;7.97;;;;;;;2.17;52.31;100758.84;5005708;28;20383;-77
2022/03/09 07:37:50;;;;;;;14.50;7.63;;;;;;;2.14;52.88;100774.69;5036398;28;20045;-77
2022/03/09 07:40:17;;;;;;;18.63;7.50;;;;;;;2.15;52.80;100771.16;5021675;28;20052;-77
2022/03/09 07:42:44;;;;;;;14.80;7.07;;;;;;;2.20;52.69;100776.22;5024870;28;20052;-77
2022/03/09 07:45:11;;;;;;;13.38;7.65;;;;;;;2.18;53.01;100774.50;5033137;28;20055;-77
2022/03/09 07:47:38;;;;;;;22.13;8.57;;;;;;;2.19;52.83;100775.38;5021044;28;20040;-77
2022/03/09 07:50:05;;;;;;;18.08;8.68;;;;;;;2.23;52.69;100768.25;5006425;28;20045;-77
2022/03/09 07:52:33;;;;;;;14.07;8.05;;;;;;;2.23;52.72;100755.97;5022619;28;20037;-77
2022/03/09 07:55:06;;;;;;;18.88;8.40;;;;;;;2.26;52.86;100765.50;5006077;28;20052;-77
2022/03/09 07:57:33;;;;;;;18.02;7.45;;;;;;;2.25;52.99;100764.66;5027889;28;20071;-77
2022/03/09 08:00:00;;;;;;;16.42;7.88;;;;;;;2.28;52.67;100764.50;5036016;28;20407;-78
2022/03/09 08:02:38;;;;;;;15.80;8.00;;;;;;;2.30;52.82;100759.22;5019805;28;20037;-77
2022/03/09 08:05:05;;;;;;;16.17;8.32;;;;;;;2.30;52.58;100767.94;5003339;28;20037;-77
2022/03/09 08:07:31;;;;;;;14.27;8.45;;;;;;;2.30;52.91;100761.84;5021820;28;20483;-77
2022/03/09 08:09:59;;;;;;;19.25;8.93;;;;;;;2.31;53.24;100760.91;5011825;28;20052;-77
2022/03/09 08:12:28;;;;;;;16.35;9.50;;;;;;;2.35;53.03;100754.66;5037577;28;20049;-77
2022/03/09 08:14:54;;;;;;;16.38;8.75;;;;;;;2.38;53.20;100762.38;5027960;28;20045;-77
2022/03/09 08:17:22;;;;;;;17.80;8.60;;;;;;;2.38;52.88;100762.38;5030724;28;20422;-78
2022/03/09 08:19:49;;;;;;;19.65;9.77;;;;;;;2.42;53.08;100760.50;5012468;28;20384;-77
2022/03/09 08:22:15;;;;;;;16.60;8.13;;;;;;;2.42;52.83;100756.13;5035560;28;20044;-77
2022/03/09 08:24:42;;;;;;;15.55;7.55;;;;;;;2.46;52.49;100748.97;5003168;28;20052;-79
2022/03/09 08:27:29;;;;;;;14.75;7.93;;;;;;;2.50;52.71;100753.19;5020919;28;20531;-77
2022/03/09 08:29:56;;;;;;;17.67;8.10;;;;;;;2.51;52.97;100750.50;5037335;28;20040;-77
2022/03/09 08:32:23;;;;;;;17.45;7.95;;;;;;;2.51;52.44;100760.13;5020483;28;20056;-77
2022/03/09 08:34:50;;;;;;;14.82;7.57;;;;;;;2.53;52.58;100750.44;5017227;28;20055;-77
2022/03/09 08:37:17;;;;;;;13.82;7.22;;;;;;;2.56;52.59;100750.31;5004153;28;20048;-76
2022/03/09 08:39:47;;;;;;;13.27;8.07;;;;;;;2.58;52.50;100738.84;5005282;28;20052;-77
2022/03/09 08:42:15;;;;;;;13.07;7.03;;;;;;;2.64;52.39;100739.50;4983270;28;20112;-77
2022/03/09 08:44:42;;;;;;;17.02;7.05;;;;;;;2.64;52.47;100745.59;4970340;28;20694;-76
2022/03/09 08:47:09;;;;;;;17.30;7.47;;;;;;;2.66;51.89;100737.69;4960021;28;20656;-77
2022/03/09 08:49:39;;;;;;;17.65;7.65;;;;;;;2.69;51.64;100737.56;4962852;28;20054;-78
2022/03/09 08:52:07;;;;;;;16.65;7.35;;;;;;;2.75;51.72;100732.91;4983481;28;20054;-81
2022/03/09 08:54:34;;;;;;;10.43;6.57;;;;;;;2.76;51.67;100739.00;4993417;28;20038;-77
2022/03/09 08:57:01;;;;;;;18.38;8.13;;;;;;;2.83;51.34;100741.31;4946000;28;20122;-77
2022/03/09 08:59:28;;;;;;;15.02;8.63;;;;;;;2.87;51.43;100742.03;5001568;28;20048;-77
2022/03/09 09:01:55;;;;;;;16.98;7.70;;;;;;;2.92;51.64;100734.81;4981383;28;20050;-77
2022/03/09 09:04:24;;;;;;;16.55;8.18;;;;;;;2.92;51.44;100736.59;4968237;28;20085;-77
2022/03/09 09:06:52;;;;;;;14.75;7.78;;;;;;;2.91;51.48;100732.28;4959493;28;20113;-77
2022/03/09 09:09:20;;;;;;;14.88;7.55;;;;;;;2.91;51.37;100732.28;4961067;28;20045;-78
2022/03/09 09:11:47;;;;;;;11.50;7.22;;;;;;;2.96;51.69;100725.06;4970514;28;20121;-77
2022/03/09 09:14:14;;;;;;;13.27;7.40;;;;;;;3.01;51.44;100728.34;5013150;28;20408;-77
2022/03/09 09:16:46;;;;;;;12.35;6.75;;;;;;;3.01;51.38;100721.31;5032428;28;20056;-76
2022/03/09 09:19:13;;;;;;;18.23;8.13;;;;;;;3.06;51.15;100728.16;5011666;28;20040;-78
2022/03/09 09:21:47;;;;;;;12.60;6.97;;;;;;;3.10;50.88;100727.06;5019815;28;20480;-77
2022/03/09 09:24:15;;;;;;;18.17;7.82;;;;;;;3.10;50.71;100732.31;5009275;28;20171;-77
2022/03/09 09:26:43;;;;;;;12.60;6.97;;;;;;;3.14;50.93;100732.13;5009828;28;20074;-77
2022/03/09 09:29:16;;;;;;;11.73;7.25;;;;;;;3.13;51.01;100733.06;5037430;28;20045;-77
2022/03/09 09:31:47;;;;;;;13.35;7.15;;;;;;;3.16;50.55;100730.31;5003343;28;20042;-77
2022/03/09 09:34:14;;;;;;;13.38;7.40;;;;;;;3.17;50.53;100729.38;5026173;28;20446;-77
2022/03/09 09:36:45;;;;;;;12.50;6.68;;;;;;;3.18;50.47;100724.97;5014760;28;20044;-77
2022/03/09 09:39:13;;;;;;;13.40;7.85;;;;;;;3.24;50.22;100725.56;4961713;28;20043;-77
2022/03/09 09:41:44;;;;;;;18.02;7.22;;;;;;;3.22;50.39;100729.19;4945160;28;20370;-77
2022/03/09 09:44:11;;;;;;;13.20;6.63;;;;;;;3.28;50.62;100735.94;4956943;28;20055;-77
2022/03/09 09:46:40;;;;;;;13.13;7.40;;;;;;;3.28;50.65;100731.53;4958762;28;20047;-77
2022/03/09 09:49:10;;;;;;;23.58;7.35;;;;;;;3.30;50.22;100736.72;4944085;28;20043;-77
2022/03/09 09:51:38;;;;;;;12.07;7.00;;;;;;;3.32;50.52;100724.38;4929969;28;20042;-77
2022/03/09 09:54:05;;;;;;;12.35;7.30;;;;;;;3.31;50.22;100726.16;4960508;28;20058;-80
2022/03/09 09:56:39;;;;;;;17.30;8.80;;;;;;;3.38;50.12;100724.09;4973057;28;20042;-77
2022/03/09 09:59:07;;;;;;;14.30;7.60;;;;;;;3.43;50.26;100727.38;4941552;28;20042;-77
2022/03/09 10:01:35;;;;;;;12.25;6.88;;;;;;;3.43;50.45;100724.75;4943810;28;20042;-78
2022/03/09 10:04:03;;;;;;;15.25;8.02;;;;;;;3.43;50.48;100716.88;4936972;28;20074;-77
2022/03/09 10:06:30;;;;;;;16.58;7.75;;;;;;;3.50;50.21;100720.94;4965683;28;20054;-77
2022/03/09 10:09:07;;;;;;;15.90;7.68;;;;;;;3.45;50.19;100720.28;4946859;28;20070;-78
2022/03/09 10:11:52;;;;;;;14.40;7.32;;;;;;;3.40;50.04;100725.72;5020238;28;20055;-77
2022/03/09 10:14:40;;;;;;;13.98;7.50;;;;;;;3.42;50.28;100728.31;5007830;28;20040;-77
2022/03/09 10:17:10;;;;;;;19.02;8.55;;;;;;;3.54;50.12;100727.75;5001394;28;20051;-77
2022/03/09 10:19:39;;;;;;;9.65;6.45;;;;;;;3.53;50.49;100728.66;5002458;28;20049;-77
2022/03/09 10:22:35;;;;;;;13.73;7.65;;;;;;;3.47;50.21;100732.41;5028753;28;20071;-77
2022/03/09 10:25:20;;;;;;;15.40;7.90;;;;;;;3.59;50.07;100728.41;4974586;28;20652;-76
2022/03/09 10:27:53;;;;;;;15.60;7.80;;;;;;;3.60;49.64;100732.72;4993737;28;20056;-77
2022/03/09 10:30:22;;;;;;;14.30;7.85;;;;;;;3.65;50.04;100727.28;5026911;28;20064;-78
2022/03/09 10:32:56;;;;;;;16.45;8.10;;;;;;;3.67;50.25;100721.03;5031997;28;20563;-77
2022/03/09 10:35:32;;;;;;;14.00;8.07;;;;;;;3.65;49.98;100724.63;5019305;28;20120;-77
2022/03/09 10:38:03;;;;;;;14.88;8.15;;;;;;;3.72;50.18;100726.06;5045540;28;20455;-77
2022/03/09 10:40:32;;;;;;;15.60;8.02;;;;;;;3.74;50.11;100731.25;5018816;28;20132;-77
2022/03/09 10:43:16;;;;;;;17.42;8.77;;;;;;;3.72;49.47;100733.94;5017071;28;20075;-77
2022/03/09 10:45:58;;;;;;;;;;;;;;;3.65;49.68;100735.16;5039979;28;20059;-77
2022/03/09 10:48:26;;;;;;;13.73;7.75;;;;;;;3.79;49.91;100734.50;5022482;28;20007;-77
2022/03/09 10:50:54;;;;;;;16.15;8.30;;;;;;;3.83;49.96;100734.31;5024800;28;20040;-78
2022/03/09 10:53:21;;;;;;;18.65;8.63;;;;;;;3.87;49.96;100730.63;5022848;28;20511;-77
2022/03/09 10:55:49;;;;;;;14.52;8.18;;;;;;;3.89;49.96;100731.41;5023704;28;20476;-77
2022/03/09 10:58:18;;;;;;;14.52;8.23;;;;;;;3.94;49.79;100735.56;5016532;28;20481;-77
2022/03/09 11:00:47;;;;;;;13.48;8.02;;;;;;;3.95;49.88;100732.03;5034894;28;20044;-77
2022/03/09 11:03:19;;;;;;;17.65;8.52;;;;;;;3.96;49.39;100737.22;5025760;28;20083;-78
2022/03/09 11:05:52;;;;;;;14.98;8.60;;;;;;;4.09;49.34;100726.97;5030883;28;20045;-77
2022/03/09 11:08:21;;;;;;;18.43;8.53;;;;;;;4.20;49.19;100729.09;5024932;28;20057;-77
2022/03/09 11:10:49;;;;;;;18.00;8.65;;;;;;;4.19;49.14;100730.88;5017860;28;20606;-77
2022/03/09 11:13:17;;;;;;;14.98;9.20;;;;;;;4.21;48.85;100728.19;5013229;28;20102;-78
2022/03/09 11:15:47;;;;;;;15.45;8.25;;;;;;;4.21;48.84;100733.44;5016517;28;20094;-77
2022/03/09 11:18:19;;;;;;;16.55;8.18;;;;;;;4.21;49.13;100728.19;5015415;28;20060;-78
2022/03/09 11:20:47;;;;;;;15.00;7.50;;;;;;;4.17;49.42;100719.56;5007797;28;20064;-78
2022/03/09 11:23:17;;;;;;;15.18;8.20;;;;;;;4.37;48.83;100717.78;5033777;28;20052;-81
2022/03/09 11:25:59;;;;;;;22.27;9.40;;;;;;;4.35;48.72;100716.09;5031046;28;20044;-77
2022/03/09 11:28:30;;;;;;;18.92;8.80;;;;;;;4.40;48.88;100710.59;4976508;28;20046;-77
2022/03/09 11:31:00;;;;;;;18.25;8.60;;;;;;;4.35;48.68;100710.81;4967548;28;20064;-78